Huvudsida
METAR-TAF:

METAR-TAF

Flygplatser :

Lycksele flygplats

Lycksele, Sverige

latitud: 64-32-51N, longitud: 018-43-03E, höjd: 211 m

Aktuellt väderrapport

Denna rapport gjordes för 1 timme och 3 minuter sedan, klockan 05:50 UTC
Vind 5 kt från syd/sydost
Temperatur 1°C
Fuktighet 86%
Tryck 975 hPa
Sikt 10 km eller mer

METAR: ESNL 220550Z AUTO 16005KT 9999 FEW033/// SCT063/// 01/M01 Q0975

Tid: 07:53 (06:53 UTC)


TAF: saknas

Aktuella väderrapporter och prognoser från 4000 flygplatser (METAR- och TAF-rapporter).

De tillgängliga stationerna syns som gula och röda prickar på kartan.

För musen över prickarna för att se namnen på stationerna.

Klicka sedan för att få väderrapporter och prognoser.

För att ändra kartan: Klicka på de gröna knapparna med ett svart kors på för att zooma in; den gröna knappen med ett streck på för att zooma ut; eller på de gröna pilarna för angränsande kartor.


METAR-TAF: